Time;durP1;ratioP1;P1;durP2;ratioP2;P2;SDS_P1;SDS_P2;PMS_P1;PMS_P2;Temp;Humidity;BMP_temperature;BMP_pressure;BME280_temperature;BME280_humidity;BME280_pressure;Samples;Min_cycle;Max_cycle;Signal;HPM_P1;HPM_P2
2022/11/30 00:00:44;;;;;;;31.27;18.23;;;3.40;99.20;;;;;;5071979;28;20208;-83
2022/11/30 00:03:11;;;;;;;30.13;18.00;;;3.50;99.60;;;;;;5065549;28;20202;-84
2022/11/30 00:05:38;;;;;;;29.77;18.73;;;3.50;99.00;;;;;;5063473;28;20296;-85
2022/11/30 00:08:08;;;;;;;34.90;19.77;;;3.50;99.20;;;;;;5069216;28;20189;-84
2022/11/30 00:10:46;;;;;;;32.93;19.30;;;3.50;99.10;;;;;;5069047;28;20721;-84
2022/11/30 00:13:13;;;;;;;30.73;18.83;;;3.50;99.10;;;;;;5061006;28;20717;-84
2022/11/30 00:15:45;;;;;;;29.87;18.97;;;3.50;99.10;;;;;;5060329;28;20283;-84
2022/11/30 00:18:16;;;;;;;30.57;19.20;;;3.60;99.20;;;;;;5068163;28;20201;-85
2022/11/30 00:20:59;;;;;;;31.33;18.10;;;3.60;98.70;;;;;;5046205;28;20773;-83
2022/11/30 00:23:26;;;;;;;30.87;18.40;;;3.60;98.60;;;;;;5060965;28;20280;-84
2022/11/30 00:25:55;;;;;;;31.77;18.87;;;3.50;98.90;;;;;;5066312;28;20199;-84
2022/11/30 00:28:33;;;;;;;32.13;18.33;;;3.50;99.00;;;;;;5069283;28;20550;-84
2022/11/30 00:31:02;;;;;;;29.57;18.33;;;3.50;99.40;;;;;;5059680;28;20284;-84
2022/11/30 00:33:34;;;;;;;34.90;19.67;;;3.60;99.60;;;;;;5068245;28;20198;-84
2022/11/30 00:36:12;;;;;;;32.07;20.20;;;3.70;99.10;;;;;;5069339;28;20204;-84
2022/11/30 00:38:51;;;;;;;32.97;19.93;;;3.60;98.80;;;;;;5064628;28;20189;-84
2022/11/30 00:41:34;;;;;;;30.43;19.27;;;3.60;98.80;;;;;;5044807;28;20596;-85
2022/11/30 00:44:02;;;;;;;30.83;18.53;;;3.50;98.90;;;;;;5063557;28;20288;-84
2022/11/30 00:46:33;;;;;;;32.70;20.40;;;3.60;99.50;;;;;;5062965;28;20224;-84
2022/11/30 00:49:02;;;;;;;31.63;19.27;;;3.60;98.90;;;;;;5074319;28;20709;-84
2022/11/30 00:52:14;;;;;;;33.70;19.90;;;3.60;98.80;;;;;;5070040;28;20193;-84
2022/11/30 00:55:20;;;;;;;35.20;20.90;;;3.60;99.30;;;;;;5067255;28;20215;-84
2022/11/30 00:57:58;;;;;;;35.03;20.57;;;3.70;98.60;;;;;;5067868;28;20203;-84
2022/11/30 01:00:44;;;;;;;37.33;21.23;;;3.80;98.00;;;;;;5073177;28;20590;-84
2022/11/30 01:03:50;;;;;;;40.30;23.03;;;3.70;98.30;;;;;;5070100;28;20201;-84
2022/11/30 01:06:33;;;;;;;38.03;22.43;;;3.50;98.40;;;;;;5069845;28;20284;-84
2022/11/30 01:09:02;;;;;;;35.50;21.33;;;3.50;98.90;;;;;;5064733;28;20202;-84
2022/11/30 01:12:08;;;;;;;37.27;22.33;;;3.50;99.10;;;;;;5067754;28;20197;-84
2022/11/30 01:14:40;;;;;;;28.97;18.80;;;3.50;99.00;;;;;;5070353;28;20271;-84
2022/11/30 01:17:07;;;;;;;33.87;20.43;;;3.50;98.40;;;;;;5072679;28;20286;-84
2022/11/30 01:19:34;;;;;;;33.17;20.50;;;3.60;97.40;;;;;;5070374;28;20213;-84
2022/11/30 01:22:03;;;;;;;31.90;19.83;;;3.60;97.80;;;;;;5055316;28;20193;-84
2022/11/30 01:24:38;;;;;;;38.43;20.60;;;3.50;98.10;;;;;;5063424;28;20211;-84
2022/11/30 01:27:08;;;;;;;31.00;19.20;;;3.60;98.30;;;;;;5073326;28;20299;-84
2022/11/30 01:29:40;;;;;;;32.63;20.27;;;3.60;98.30;;;;;;5081340;28;20204;-84
2022/11/30 01:32:07;;;;;;;32.10;19.77;;;3.60;98.30;;;;;;5068224;28;20197;-85
2022/11/30 01:35:20;;;;;;;31.33;20.20;;;3.50;98.30;;;;;;5071826;28;20201;-84
2022/11/30 01:37:47;;;;;;;34.67;20.97;;;3.50;98.10;;;;;;5064828;28;20293;-86
2022/11/30 01:40:15;;;;;;;31.37;20.40;;;3.50;97.60;;;;;;5055367;28;20224;-84
2022/11/30 01:42:56;;;;;;;34.40;20.43;;;3.50;98.00;;;;;;5074392;28;20198;-84
2022/11/30 01:45:28;;;;;;;32.27;20.07;;;3.60;97.90;;;;;;5047392;28;20200;-84
2022/11/30 01:47:57;;;;;;;35.67;20.53;;;3.60;97.60;;;;;;5067667;28;20205;-84
2022/11/30 01:50:38;;;;;;;35.40;21.77;;;3.60;97.90;;;;;;5069891;28;20635;-84
2022/11/30 01:53:11;;;;;;;35.63;21.37;;;3.50;97.80;;;;;;5067597;28;20216;-84
2022/11/30 01:55:48;;;;;;;34.57;22.40;;;3.60;98.00;;;;;;5065672;28;20202;-84
2022/11/30 01:58:26;;;;;;;36.13;22.63;;;3.60;98.20;;;;;;5068447;28;20727;-85
2022/11/30 02:00:56;;;;;;;38.00;22.17;;;3.60;97.80;;;;;;5070002;28;20213;-84
2022/11/30 02:03:39;;;;;;;37.97;23.43;;;3.60;98.10;;;;;;5068297;28;20580;-84
2022/11/30 02:06:21;;;;;;;35.33;22.30;;;3.50;97.80;;;;;;5067888;28;20208;-85
2022/11/30 02:09:26;;;;;;;37.10;22.67;;;3.50;98.10;;;;;;5063962;28;20688;-85
2022/11/30 02:11:57;;;;;;;38.37;22.43;;;3.60;98.30;;;;;;5066009;28;20204;-84
2022/11/30 02:14:39;;;;;;;38.90;23.17;;;3.60;98.20;;;;;;5064371;28;20209;-85
2022/11/30 02:17:19;;;;;;;38.33;23.47;;;3.70;97.80;;;;;;5061772;28;20215;-85
2022/11/30 02:20:31;;;;;;;39.20;22.57;;;3.80;97.80;;;;;;5055014;28;20236;-84
2022/11/30 02:23:47;;;;;;;37.00;23.20;;;3.80;97.40;;;;;;5063764;28;20241;-84
2022/11/30 02:26:27;;;;;;;42.03;22.70;;;3.70;97.70;;;;;;4988156;28;20214;-85
2022/11/30 02:29:27;;;;;;;42.07;23.17;;;3.60;97.80;;;;;;4977516;28;20209;-84
2022/11/30 02:32:04;;;;;;;37.37;22.30;;;3.60;98.00;;;;;;4981541;28;20196;-84
2022/11/30 02:34:36;;;;;;;40.00;22.67;;;3.50;98.00;;;;;;4984830;28;20576;-84
2022/11/30 02:37:10;;;;;;;35.87;21.33;;;3.50;98.20;;;;;;4979873;28;20207;-83
2022/11/30 02:39:51;;;;;;;38.47;21.57;;;3.60;98.00;;;;;;4984034;28;20188;-86
2022/11/30 02:42:21;;;;;;;36.47;21.73;;;3.60;97.70;;;;;;4991026;28;20207;-84
2022/11/30 02:44:53;;;;;;;36.90;21.23;;;3.60;98.00;;;;;;4988141;28;20204;-84
2022/11/30 02:47:27;;;;;;;38.03;21.90;;;3.60;98.50;;;;;;4983672;28;20204;-84
2022/11/30 02:49:59;;;;;;;34.97;20.53;;;3.70;97.90;;;;;;4988253;28;20215;-84
2022/11/30 02:52:28;;;;;;;33.13;19.93;;;3.70;97.90;;;;;;4972166;28;20258;-85
2022/11/30 02:55:00;;;;;;;30.47;19.40;;;3.60;97.90;;;;;;4987393;28;20224;-84
2022/11/30 02:57:27;;;;;;;32.67;19.13;;;3.60;97.90;;;;;;4984869;28;20200;-84
2022/11/30 03:00:06;;;;;;;31.40;19.30;;;3.60;97.80;;;;;;4986217;28;20230;-84
2022/11/30 03:02:35;;;;;;;31.77;17.27;;;3.60;97.70;;;;;;5038755;28;20209;-83
2022/11/30 03:05:50;;;;;;;28.93;16.53;;;3.70;97.40;;;;;;5063276;28;20293;-83
2022/11/30 03:09:09;;;;;;;29.40;17.40;;;3.70;97.00;;;;;;5066946;28;20792;-85
2022/11/30 03:11:35;;;;;;;29.30;16.73;;;3.60;96.80;;;;;;5063037;28;20304;-84
2022/11/30 03:14:03;;;;;;;27.63;16.60;;;3.40;97.50;;;;;;5060726;28;20212;-83
2022/11/30 03:16:39;;;;;;;32.77;17.93;;;3.40;97.50;;;;;;5056446;28;20576;-84
2022/11/30 03:19:22;;;;;;;31.27;17.53;;;3.40;97.40;;;;;;5066569;28;20201;-84
2022/11/30 03:22:03;;;;;;;29.40;17.83;;;3.40;97.40;;;;;;5069023;28;20235;-84
2022/11/30 03:24:56;;;;;;;30.60;18.60;;;3.40;97.60;;;;;;5046644;28;20284;-83
2022/11/30 03:27:27;;;;;;;32.13;19.57;;;3.40;97.40;;;;;;5063832;28;20206;-83
2022/11/30 03:29:54;;;;;;;37.27;19.83;;;3.40;97.40;;;;;;5070278;28;20197;-86
2022/11/30 03:32:27;;;;;;;33.07;18.87;;;3.50;97.40;;;;;;5066845;28;20197;-83
2022/11/30 03:34:58;;;;;;;33.57;18.90;;;3.40;97.40;;;;;;5066441;28;20211;-84
2022/11/30 03:37:44;;;;;;;29.63;19.77;;;3.40;97.40;;;;;;5060254;28;20288;-83
2022/11/30 03:40:26;;;;;;;32.93;19.73;;;3.40;97.50;;;;;;5065617;28;20227;-84
2022/11/30 03:42:56;;;;;;;37.10;20.83;;;3.40;97.70;;;;;;5061811;28;20196;-84
2022/11/30 03:45:45;;;;;;;38.27;21.07;;;3.30;97.80;;;;;;5068679;28;20288;-84
2022/11/30 03:48:27;;;;;;;33.10;19.60;;;3.30;98.00;;;;;;5064878;28;20205;-84
2022/11/30 03:51:05;;;;;;;31.00;19.10;;;3.30;97.90;;;;;;5056732;28;20204;-83
2022/11/30 03:53:32;;;;;;;32.30;19.30;;;3.40;97.80;;;;;;5068793;28;20220;-83
2022/11/30 03:56:02;;;;;;;30.80;19.00;;;3.40;97.60;;;;;;5070596;28;20189;-84
2022/11/30 03:58:38;;;;;;;35.97;19.67;;;3.40;97.70;;;;;;5058211;28;20565;-83
2022/11/30 04:01:08;;;;;;;37.47;20.40;;;3.40;97.40;;;;;;5068017;28;20209;-84
2022/11/30 04:03:39;;;;;;;32.47;19.63;;;3.40;97.60;;;;;;5070922;28;20199;-83
2022/11/30 04:06:17;;;;;;;36.37;20.70;;;3.40;97.70;;;;;;5066337;28;20294;-83
2022/11/30 04:09:03;;;;;;;35.77;20.27;;;3.50;97.70;;;;;;5064550;28;20203;-84
2022/11/30 04:11:30;;;;;;;35.40;20.87;;;3.60;97.40;;;;;;5065009;28;20209;-83
2022/11/30 04:14:38;;;;;;;34.53;20.23;;;3.50;97.40;;;;;;5050818;28;20575;-83
2022/11/30 04:17:21;;;;;;;36.10;20.17;;;3.50;97.80;;;;;;5069426;28;20205;-83
2022/11/30 04:19:47;;;;;;;35.67;20.40;;;3.50;97.80;;;;;;5059700;28;20201;-85
2022/11/30 04:22:34;;;;;;;35.10;19.70;;;3.50;97.40;;;;;;5069865;28;20296;-83
2022/11/30 04:25:03;;;;;;;37.27;20.70;;;3.50;97.60;;;;;;5059920;28;20285;-84
2022/11/30 04:27:39;;;;;;;35.23;19.73;;;3.40;97.90;;;;;;5061638;28;20284;-83
2022/11/30 04:30:10;;;;;;;36.60;21.30;;;3.40;98.00;;;;;;5067440;28;20200;-84
2022/11/30 04:32:36;;;;;;;36.30;21.13;;;3.40;97.90;;;;;;5066145;28;20232;-83
2022/11/30 04:35:04;;;;;;;44.70;22.50;;;3.50;98.10;;;;;;5063930;28;20280;-84
2022/11/30 04:37:40;;;;;;;36.43;20.60;;;3.40;97.90;;;;;;5047327;28;20194;-83
2022/11/30 04:40:44;;;;;;;37.60;20.40;;;3.40;98.30;;;;;;5066853;28;20296;-83
2022/11/30 04:43:12;;;;;;;31.37;20.00;;;3.40;98.50;;;;;;5060354;28;20205;-83
2022/11/30 04:46:08;;;;;;;36.80;20.60;;;3.50;98.10;;;;;;5064655;28;20705;-83
2022/11/30 04:49:14;;;;;;;34.17;19.57;;;3.50;97.90;;;;;;5063899;28;20299;-84
2022/11/30 04:51:45;;;;;;;37.50;20.50;;;3.50;97.50;;;;;;5067525;28;20287;-84
2022/11/30 04:54:23;;;;;;;33.57;20.10;;;3.40;98.00;;;;;;5068304;28;20225;-83
2022/11/30 04:57:38;;;;;;;36.50;20.77;;;3.40;98.30;;;;;;5061912;28;20569;-85
2022/11/30 05:00:06;;;;;;;37.50;20.27;;;3.40;98.60;;;;;;5062677;28;20201;-83
2022/11/30 05:02:39;;;;;;;33.37;19.63;;;3.40;98.60;;;;;;5063738;28;20211;-83
2022/11/30 05:05:15;;;;;;;35.23;20.57;;;3.50;98.40;;;;;;5067357;28;20288;-83
2022/11/30 05:07:51;;;;;;;33.23;19.07;;;3.60;97.60;;;;;;5068289;28;20203;-83
2022/11/30 05:10:20;;;;;;;32.43;19.30;;;3.60;97.40;;;;;;5062033;28;20198;-86
2022/11/30 05:12:57;;;;;;;31.80;19.70;;;3.60;97.40;;;;;;5072894;28;20197;-83
2022/11/30 05:15:33;;;;;;;33.77;19.93;;;3.70;97.40;;;;;;5073139;28;20296;-84
2022/11/30 05:18:15;;;;;;;36.60;19.23;;;3.60;97.60;;;;;;5064727;28;20203;-83
2022/11/30 05:20:46;;;;;;;33.40;19.20;;;3.50;98.10;;;;;;5071011;28;20220;-83
2022/11/30 05:23:14;;;;;;;32.93;20.23;;;3.50;98.30;;;;;;5066338;28;20197;-83
2022/11/30 05:26:08;;;;;;;34.50;19.10;;;3.50;98.40;;;;;;5054188;28;20562;-83
2022/11/30 05:29:02;;;;;;;35.97;21.30;;;3.50;98.30;;;;;;5071722;28;20204;-83
2022/11/30 05:31:29;;;;;;;33.80;19.53;;;3.40;98.50;;;;;;5071157;28;20205;-83
2022/11/30 05:33:56;;;;;;;36.03;20.10;;;3.40;99.10;;;;;;5066907;28;20288;-84
2022/11/30 05:36:27;;;;;;;34.93;20.07;;;3.40;98.80;;;;;;5067382;28;20286;-83
2022/11/30 05:39:03;;;;;;;32.03;18.77;;;3.30;98.90;;;;;;5070537;28;20205;-83
2022/11/30 05:41:40;;;;;;;31.80;19.20;;;3.30;99.00;;;;;;5067292;28;20270;-83
2022/11/30 05:44:15;;;;;;;33.17;19.93;;;3.40;99.00;;;;;;5068718;28;20696;-83
2022/11/30 05:46:42;;;;;;;31.97;18.67;;;3.40;98.70;;;;;;5068077;28;20713;-84
2022/11/30 05:49:09;;;;;;;33.00;18.90;;;3.50;98.20;;;;;;5068938;28;21526;-83
2022/11/30 05:51:36;;;;;;;33.10;19.10;;;3.50;98.00;;;;;;5062606;28;20288;-83
2022/11/30 05:54:15;;;;;;;30.17;18.13;;;3.50;98.10;;;;;;5070148;28;20304;-83
2022/11/30 05:56:43;;;;;;;26.53;17.07;;;3.50;98.00;;;;;;5064362;28;20197;-82
2022/11/30 05:59:15;;;;;;;28.37;17.23;;;3.60;97.60;;;;;;5066335;28;20210;-83
2022/11/30 06:01:45;;;;;;;29.93;17.37;;;3.60;97.00;;;;;;5047364;28;20221;-84
2022/11/30 06:04:44;;;;;;;27.00;17.13;;;3.50;97.00;;;;;;5071112;28;20201;-82
2022/11/30 06:07:11;;;;;;;27.30;16.73;;;3.50;97.10;;;;;;5064599;28;20284;-83
2022/11/30 06:09:38;;;;;;;27.23;17.07;;;3.50;97.40;;;;;;5062966;28;20280;-85
2022/11/30 06:12:08;;;;;;;30.67;17.33;;;3.50;97.40;;;;;;5073599;28;20292;-83
2022/11/30 06:14:35;;;;;;;26.50;17.17;;;3.50;97.40;;;;;;5062189;28;20732;-84
2022/11/30 06:17:26;;;;;;;29.67;17.33;;;3.50;97.40;;;;;;5071455;28;20211;-84
2022/11/30 06:19:57;;;;;;;30.40;17.47;;;3.60;97.30;;;;;;5060885;28;20285;-88
2022/11/30 06:22:24;;;;;;;29.10;16.97;;;3.60;97.20;;;;;;5070397;28;20224;-84
2022/11/30 06:24:51;;;;;;;29.00;18.03;;;3.60;97.00;;;;;;5068215;28;20201;-84
2022/11/30 06:27:22;;;;;;;32.07;17.83;;;3.60;97.00;;;;;;5048305;28;20232;-83
2022/11/30 06:30:03;;;;;;;30.53;17.70;;;3.50;97.40;;;;;;5066735;28;20680;-84
2022/11/30 06:33:02;;;;;;;29.43;18.00;;;3.60;97.30;;;;;;5068678;28;20196;-84
2022/11/30 06:35:46;;;;;;;30.13;17.97;;;3.60;97.20;;;;;;5068723;28;20201;-85
2022/11/30 06:38:51;;;;;;;31.73;18.30;;;3.50;97.60;;;;;;5066629;28;21393;-86
2022/11/30 06:41:21;;;;;;;28.27;17.77;;;3.50;97.80;;;;;;5065454;28;20301;-86
2022/11/30 06:43:52;;;;;;;28.20;16.87;;;3.60;97.80;;;;;;5066930;28;20266;-85
2022/11/30 06:46:20;;;;;;;29.53;17.40;;;3.70;97.20;;;;;;5066833;28;20196;-85
2022/11/30 06:48:49;;;;;;;29.73;17.03;;;3.70;96.90;;;;;;5047915;28;20190;-85
2022/11/30 06:51:21;;;;;;;29.53;16.93;;;3.60;96.90;;;;;;5070876;28;20204;-85
2022/11/30 06:54:09;;;;;;;27.57;17.00;;;3.60;97.10;;;;;;5065632;28;20311;-85
2022/11/30 06:56:36;;;;;;;29.30;17.30;;;3.70;97.40;;;;;;5057008;28;20194;-85
2022/11/30 06:59:17;;;;;;;25.87;16.63;;;3.90;97.00;;;;;;5066569;28;20200;-85
2022/11/30 07:02:02;;;;;;;23.07;15.07;;;3.90;96.60;;;;;;5064210;28;20232;-85
2022/11/30 07:04:45;;;;;;;28.03;17.37;;;3.90;95.80;;;;;;5061990;28;20285;-85
2022/11/30 07:07:12;;;;;;;27.03;16.70;;;3.90;95.80;;;;;;5063399;28;20371;-88
2022/11/30 07:09:45;;;;;;;31.80;18.00;;;3.80;96.20;;;;;;5066926;28;20288;-86
2022/11/30 07:12:45;;;;;;;26.43;16.77;;;3.80;96.50;;;;;;5066198;28;20209;-85
2022/11/30 07:15:22;;;;;;;28.83;16.87;;;3.70;97.00;;;;;;5061729;28;20894;-86
2022/11/30 07:17:51;;;;;;;27.50;17.40;;;3.70;97.30;;;;;;5072506;28;20207;-85
2022/11/30 07:20:18;;;;;;;27.80;17.63;;;3.70;97.10;;;;;;5070162;28;20223;-85
2022/11/30 07:22:45;;;;;;;27.43;17.40;;;3.80;97.50;;;;;;5070522;28;20217;-85
2022/11/30 07:28:34;;;;;;;26.43;16.63;;;3.90;96.90;;;;;;5057395;28;20250;-85
2022/11/30 07:31:13;;;;;;;26.93;16.97;;;4.00;96.80;;;;;;5064353;28;20240;-86
2022/11/30 07:33:40;;;;;;;26.80;16.60;;;4.00;96.00;;;;;;5064718;28;20201;-85
2022/11/30 07:36:28;;;;;;;28.20;17.50;;;4.00;95.80;;;;;;5055742;28;20206;-86
2022/11/30 07:38:57;;;;;;;28.30;16.63;;;4.10;94.90;;;;;;5067019;28;20193;-85
2022/11/30 07:41:50;;;;;;;28.60;17.17;;;4.00;95.50;;;;;;5068733;28;20221;-85
2022/11/30 07:44:21;;;;;;;28.63;17.73;;;4.10;95.20;;;;;;5063375;28;20919;-85
2022/11/30 07:46:49;;;;;;;27.60;17.50;;;4.00;95.50;;;;;;5063449;28;20203;-85
2022/11/30 07:49:16;;;;;;;29.63;18.67;;;3.90;95.80;;;;;;5070385;28;20293;-85
2022/11/30 07:51:57;;;;;;;29.60;17.33;;;3.90;96.20;;;;;;5070222;28;20212;-85
2022/11/30 07:54:39;;;;;;;28.17;16.30;;;3.90;96.30;;;;;;5063334;28;20231;-86
2022/11/30 07:57:06;;;;;;;28.17;17.93;;;4.00;96.30;;;;;;5064138;28;20657;-85
2022/11/30 07:59:51;;;;;;;28.60;18.37;;;4.00;95.90;;;;;;5067563;28;20208;-84
2022/11/30 08:02:40;;;;;;;27.87;17.33;;;4.00;96.00;;;;;;5066172;28;20224;-89
2022/11/30 08:05:10;;;;;;;27.87;17.17;;;4.10;95.60;;;;;;5070159;28;20193;-89
2022/11/30 08:07:39;;;;;;;28.30;17.07;;;4.10;95.30;;;;;;5048466;28;20284;-88
2022/11/30 08:10:26;;;;;;;30.53;17.67;;;4.20;94.90;;;;;;5070414;28;20280;-86
2022/11/30 08:12:53;;;;;;;29.10;17.37;;;4.20;95.50;;;;;;5065945;28;20201;-84
2022/11/30 08:15:20;;;;;;;27.13;16.77;;;4.20;95.90;;;;;;5070118;28;20291;-84
2022/11/30 08:17:54;;;;;;;27.07;17.03;;;4.20;96.10;;;;;;5067952;28;20209;-86
2022/11/30 08:20:21;;;;;;;32.23;18.37;;;4.20;95.50;;;;;;5070309;28;20201;-86
2022/11/30 08:22:50;;;;;;;30.73;18.03;;;4.20;95.80;;;;;;5069152;28;20221;-86
2022/11/30 08:25:18;;;;;;;26.13;16.53;;;4.20;96.20;;;;;;5071110;28;20294;-84
2022/11/30 08:27:45;;;;;;;28.00;16.73;;;4.30;95.70;;;;;;5071302;28;20193;-87
2022/11/30 08:30:15;;;;;;;26.83;16.93;;;4.30;95.70;;;;;;5066994;28;20219;-84
2022/11/30 08:32:52;;;;;;;26.73;17.53;;;4.40;95.30;;;;;;5068548;28;20208;-85
2022/11/30 08:35:21;;;;;;;27.87;17.20;;;4.40;95.30;;;;;;5072655;28;20284;-87
2022/11/30 08:37:48;;;;;;;26.57;16.23;;;4.30;95.70;;;;;;5070618;28;20200;-88
2022/11/30 08:40:15;;;;;;;26.63;16.17;;;4.30;95.40;;;;;;5075946;28;20211;-88
2022/11/30 08:42:42;;;;;;;24.47;16.17;;;4.40;95.00;;;;;;5063983;28;20217;-86
2022/11/30 08:45:44;;;;;;;26.17;15.97;;;4.40;95.10;;;;;;5064221;28;20288;-86
2022/11/30 08:49:03;;;;;;;25.97;15.73;;;4.30;94.90;;;;;;5069347;28;20211;-85
2022/11/30 08:51:34;;;;;;;28.77;17.47;;;4.40;94.90;;;;;;5066171;28;20264;-87
2022/11/30 08:54:21;;;;;;;26.73;16.83;;;4.40;94.90;;;;;;5067234;28;20583;-88
2022/11/30 08:57:03;;;;;;;23.33;15.03;;;4.40;94.90;;;;;;5066478;28;20193;-87
2022/11/30 08:59:31;;;;;;;25.53;13.93;;;4.40;95.00;;;;;;5066405;28;20299;-86
2022/11/30 09:02:20;;;;;;;22.27;14.23;;;4.40;95.00;;;;;;5067354;28;20213;-85
2022/11/30 09:04:50;;;;;;;22.23;14.43;;;4.40;94.90;;;;;;5072235;28;20201;-86
2022/11/30 09:07:19;;;;;;;22.13;13.97;;;4.50;95.00;;;;;;5070572;28;20262;-87
2022/11/30 09:10:03;;;;;;;24.80;14.77;;;4.50;94.30;;;;;;5067777;28;20907;-87
2022/11/30 09:12:50;;;;;;;27.13;15.10;;;4.50;93.90;;;;;;5042446;28;20203;-86
2022/11/30 09:15:44;;;;;;;23.80;15.00;;;4.40;94.20;;;;;;5064937;28;20285;-84
2022/11/30 09:18:12;;;;;;;22.03;14.83;;;4.50;94.40;;;;;;5070994;28;20205;-83
2022/11/30 09:21:16;;;;;;;24.03;14.83;;;4.60;94.10;;;;;;5071632;28;20209;-85
2022/11/30 09:23:47;;;;;;;23.73;14.00;;;4.60;94.10;;;;;;5071156;28;20542;-84
2022/11/30 09:26:17;;;;;;;24.33;15.93;;;4.60;94.00;;;;;;5068043;28;20197;-84
2022/11/30 09:28:46;;;;;;;25.53;15.73;;;4.60;94.00;;;;;;5067480;28;20197;-87
2022/11/30 09:31:14;;;;;;;29.60;15.90;;;4.60;94.10;;;;;;5050693;28;20205;-88
2022/11/30 09:34:02;;;;;;;25.97;15.70;;;4.60;94.30;;;;;;5070149;28;20640;-83
2022/11/30 09:36:50;;;;;;;24.47;15.03;;;4.70;94.20;;;;;;5069829;28;20204;-86
2022/11/30 09:39:19;;;;;;;27.47;16.17;;;4.70;93.70;;;;;;5068905;28;20229;-86
2022/11/30 09:42:22;;;;;;;26.83;16.07;;;4.70;93.90;;;;;;5067755;28;20225;-86
2022/11/30 09:45:12;;;;;;;25.07;15.90;;;4.70;94.00;;;;;;4994984;28;20199;-86
2022/11/30 09:48:05;;;;;;;27.23;16.23;;;4.80;93.60;;;;;;5004654;28;20245;-87
2022/11/30 09:50:37;;;;;;;26.07;14.97;;;4.80;93.80;;;;;;5005113;28;20206;-87
2022/11/30 09:53:22;;;;;;;22.67;14.63;;;4.70;94.20;;;;;;5002500;28;20676;-85
2022/11/30 09:56:15;;;;;;;25.53;15.87;;;4.80;93.70;;;;;;5002926;28;20204;-86
2022/11/30 09:58:55;;;;;;;24.27;15.13;;;4.80;93.20;;;;;;5003811;28;20214;-88
2022/11/30 10:01:22;;;;;;;25.87;15.17;;;4.80;94.00;;;;;;5001748;28;20210;-84
2022/11/30 10:04:19;;;;;;;25.93;15.13;;;4.90;93.70;;;;;;5003441;28;20672;-84
2022/11/30 10:06:56;;;;;;;23.57;15.07;;;5.00;93.00;;;;;;5004854;28;20215;-85
2022/11/30 10:09:42;;;;;;;24.13;14.50;;;4.90;93.30;;;;;;4995733;28;20213;-85
2022/11/30 10:12:16;;;;;;;24.50;15.17;;;4.90;92.70;;;;;;5008915;28;20212;-85
2022/11/30 10:15:17;;;;;;;26.23;14.77;;;5.00;92.70;;;;;;5005048;28;20203;-87
2022/11/30 10:21:21;;;;;;;23.00;14.27;;;5.00;93.20;;;;;;5014530;28;20608;-87
2022/11/30 10:24:03;;;;;;;20.43;14.00;;;5.00;92.90;;;;;;5066620;28;20339;-85
2022/11/30 10:26:44;;;;;;;21.63;13.80;;;5.10;92.40;;;;;;5066294;28;20207;-88
2022/11/30 10:29:19;;;;;;;22.60;14.07;;;5.10;93.40;;;;;;5059633;28;20208;-88
2022/11/30 10:32:20;;;;;;;24.60;14.63;;;5.30;92.40;;;;;;5062422;28;20671;-87
2022/11/30 10:34:54;;;;;;;20.80;13.57;;;5.20;91.90;;;;;;5067238;28;20204;-85
2022/11/30 10:37:41;;;;;;;22.80;14.13;;;5.10;92.50;;;;;;5067754;28;20242;-88
2022/11/30 10:40:20;;;;;;;23.37;14.47;;;5.00;91.90;;;;;;5061512;28;20662;-85
2022/11/30 10:42:52;;;;;;;24.93;14.67;;;5.10;91.60;;;;;;5063004;28;20229;-87
2022/11/30 10:45:24;;;;;;;23.37;14.23;;;5.10;92.20;;;;;;5051243;28;20208;-86
2022/11/30 10:48:44;;;;;;;21.47;13.27;;;5.10;92.30;;;;;;5066741;28;20202;-87
2022/11/30 10:51:27;;;;;;;22.90;14.03;;;5.10;91.70;;;;;;5068971;28;20620;-87
2022/11/30 10:53:55;;;;;;;24.40;14.53;;;5.20;91.20;;;;;;5063068;28;20306;-87
2022/11/30 10:56:27;;;;;;;20.70;13.60;;;5.10;91.80;;;;;;5063421;28;20560;-86
2022/11/30 10:59:32;;;;;;;21.80;13.80;;;5.10;91.10;;;;;;5066481;28;20705;-86
2022/11/30 11:02:29;;;;;;;22.30;13.77;;;5.10;91.10;;;;;;5065127;28;20316;-83
2022/11/30 11:05:17;;;;;;;19.57;12.70;;;4.90;91.40;;;;;;5067294;28;20197;-86
2022/11/30 11:07:58;;;;;;;22.63;14.03;;;4.90;91.60;;;;;;5065009;28;20688;-83
2022/11/30 11:10:33;;;;;;;21.30;13.70;;;4.90;91.90;;;;;;5068207;28;20687;-84
2022/11/30 11:13:35;;;;;;;21.47;13.50;;;5.00;92.10;;;;;;5065375;28;20579;-86
2022/11/30 11:16:56;;;;;;;19.97;12.60;;;5.10;92.10;;;;;;5065430;28;20331;-86
2022/11/30 11:19:37;;;;;;;19.00;12.07;;;5.40;90.50;;;;;;5067675;28;20212;-83
2022/11/30 11:22:07;;;;;;;21.50;12.80;;;5.40;90.40;;;;;;5069666;28;22604;-85
2022/11/30 11:24:39;;;;;;;19.30;12.87;;;5.40;90.70;;;;;;5069777;28;20201;-85
2022/11/30 11:27:28;;;;;;;20.83;12.70;;;5.30;90.80;;;;;;5069144;28;20276;-85
2022/11/30 11:30:17;;;;;;;18.53;12.00;;;5.30;91.10;;;;;;5067007;28;20288;-87
2022/11/30 11:32:58;;;;;;;21.33;12.43;;;5.30;91.10;;;;;;5069424;28;20208;-86
2022/11/30 11:35:43;;;;;;;18.00;13.10;;;5.40;90.40;;;;;;5067748;28;20193;-86
2022/11/30 11:38:24;;;;;;;19.17;12.37;;;5.40;90.20;;;;;;5062744;28;20204;-87
2022/11/30 11:40:54;;;;;;;22.67;13.10;;;5.50;90.00;;;;;;5042841;28;20279;-86
2022/11/30 11:43:22;;;;;;;25.67;13.77;;;5.60;88.20;;;;;;5064297;28;20225;-85
2022/11/30 11:46:01;;;;;;;19.33;12.97;;;5.40;88.90;;;;;;5065954;28;20193;-87
2022/11/30 11:48:36;;;;;;;22.30;13.70;;;5.30;90.00;;;;;;5052900;28;20280;-86
2022/11/30 11:51:06;;;;;;;21.57;14.20;;;5.30;90.30;;;;;;5068122;28;20279;-86
2022/11/30 11:54:06;;;;;;;23.27;15.20;;;5.30;89.20;;;;;;5069134;28;20299;-86
2022/11/30 11:56:36;;;;;;;23.87;15.27;;;5.40;89.20;;;;;;5068499;28;20250;-86
2022/11/30 11:59:18;;;;;;;23.80;14.83;;;5.40;90.00;;;;;;5065584;28;20288;-86
2022/11/30 12:01:58;;;;;;;25.57;15.43;;;5.20;90.40;;;;;;5068237;28;20285;-86
2022/11/30 12:04:43;;;;;;;23.07;15.17;;;5.10;90.80;;;;;;5063013;28;20568;-87
2022/11/30 12:07:26;;;;;;;25.73;16.00;;;5.10;91.30;;;;;;5062719;28;20228;-86
2022/11/30 12:10:13;;;;;;;24.93;15.30;;;5.00;91.50;;;;;;5065300;28;20200;-86
2022/11/30 12:12:58;;;;;;;23.67;15.80;;;5.00;91.50;;;;;;5061969;28;20209;-85
2022/11/30 12:15:31;;;;;;;20.90;14.23;;;5.00;92.00;;;;;;5050746;28;20258;-84
2022/11/30 12:18:19;;;;;;;23.93;15.63;;;5.00;91.30;;;;;;5056151;28;20633;-86
2022/11/30 12:20:54;;;;;;;22.13;15.13;;;4.90;91.50;;;;;;5062791;28;20201;-86
2022/11/30 12:24:05;;;;;;;23.67;14.67;;;4.90;91.50;;;;;;5044828;28;20572;-86
2022/11/30 12:26:39;;;;;;;21.63;14.20;;;5.00;91.10;;;;;;5064281;28;20227;-86
2022/11/30 12:29:21;;;;;;;22.20;14.80;;;5.10;90.90;;;;;;5061950;28;20203;-87
2022/11/30 12:32:03;;;;;;;21.90;14.83;;;5.20;90.70;;;;;;5067959;28;20213;-84
2022/11/30 12:34:49;;;;;;;25.27;14.77;;;5.10;91.30;;;;;;5069056;28;20216;-88
2022/11/30 12:37:25;;;;;;;21.73;14.30;;;5.10;91.10;;;;;;5067027;28;20202;-86
2022/11/30 12:40:02;;;;;;;23.67;14.07;;;5.00;91.30;;;;;;5071928;28;20307;-84
2022/11/30 12:42:41;;;;;;;24.93;14.43;;;5.10;91.60;;;;;;5068379;28;20221;-85
2022/11/30 12:45:44;;;;;;;22.47;14.10;;;5.10;91.50;;;;;;5073034;28;20199;-84
2022/11/30 12:48:25;;;;;;;24.77;14.43;;;5.20;90.80;;;;;;5064667;28;20283;-83
2022/11/30 12:51:09;;;;;;;22.67;13.93;;;5.10;91.40;;;;;;5065343;28;20316;-83
2022/11/30 12:53:59;;;;;;;21.87;13.77;;;5.30;90.40;;;;;;5062546;28;20785;-85
2022/11/30 12:56:40;;;;;;;25.93;15.00;;;5.20;90.80;;;;;;5066955;28;20679;-84
2022/11/30 12:59:22;;;;;;;24.07;13.87;;;5.20;91.00;;;;;;5050774;28;20300;-86
2022/11/30 13:02:15;;;;;;;20.13;13.03;;;5.10;91.00;;;;;;5070864;28;20212;-86
2022/11/30 13:04:46;;;;;;;20.20;12.83;;;5.10;91.20;;;;;;5069451;28;20280;-83
2022/11/30 13:07:26;;;;;;;18.63;12.40;;;5.20;90.50;;;;;;5065749;28;20209;-83
2022/11/30 13:13:31;;;;;;;18.20;12.33;;;5.30;89.80;;;;;;5071534;28;20195;-83
2022/11/30 13:16:22;;;;;;;17.63;11.30;;;5.30;90.00;;;;;;5072018;28;20207;-84
2022/11/30 13:18:51;;;;;;;21.13;12.37;;;5.30;89.10;;;;;;5068009;28;20203;-84
2022/11/30 13:21:31;;;;;;;19.30;12.80;;;5.20;90.40;;;;;;5068905;28;20240;-85
2022/11/30 13:24:14;;;;;;;23.90;13.20;;;5.10;90.50;;;;;;5068324;28;20300;-84
2022/11/30 13:26:53;;;;;;;18.50;12.23;;;5.10;90.90;;;;;;5070391;28;20232;-89
2022/11/30 13:29:53;;;;;;;19.23;11.50;;;5.20;90.30;;;;;;5066935;28;20263;-86
2022/11/30 13:32:21;;;;;;;19.20;11.73;;;5.30;89.60;;;;;;5061435;28;20240;-88
2022/11/30 13:35:35;;;;;;;16.17;10.93;;;5.50;87.80;;;;;;5066520;28;20373;-87
2022/11/30 13:38:24;;;;;;;19.33;12.23;;;5.60;87.20;;;;;;5004896;28;20211;-87
2022/11/30 13:41:09;;;;;;;17.23;11.57;;;5.50;87.20;;;;;;5001005;28;20285;-87
2022/11/30 13:43:44;;;;;;;20.67;12.10;;;5.40;89.10;;;;;;5006805;28;20314;-87
2022/11/30 13:46:18;;;;;;;20.77;13.47;;;5.40;89.20;;;;;;5003137;28;20206;-87